Time;durP1;ratioP1;P1;durP2;ratioP2;P2;SDS_P1;SDS_P2;PMS_P1;PMS_P2;Temp;Humidity;BMP_temperature;BMP_pressure;BME280_temperature;BME280_humidity;BME280_pressure;Samples;Min_cycle;Max_cycle;Signal;HPM_P1;HPM_P2
2022/03/07 00:00:57;;;;;;;37.40;22.40;;;;;;;-0.10;54.43;100717.75;129531;1276;108729;-77
2022/03/07 00:04:02;;;;;;;36.50;20.70;;;;;;;-0.10;54.67;100718.60;129547;1276;108571;-78
2022/03/07 00:07:08;;;;;;;37.40;20.80;;;;;;;-0.07;54.12;100715.15;129499;1276;106834;-77
2022/03/07 00:10:14;;;;;;;35.60;19.90;;;;;;;-0.04;54.10;100706.59;129730;1276;108866;-77
2022/03/07 00:13:19;;;;;;;34.60;20.10;;;;;;;-0.02;54.78;100708.78;129563;1276;108872;-77
2022/03/07 00:16:25;;;;;;;36.20;21.00;;;;;;;-0.04;55.06;100709.38;129466;1276;108877;-77
2022/03/07 00:19:30;;;;;;;32.20;19.80;;;;;;;-0.03;54.48;100707.61;129514;1276;108822;-77
2022/03/07 00:22:36;;;;;;;32.80;19.50;;;;;;;-0.04;54.54;100705.20;129696;1276;109263;-77
2022/03/07 00:25:42;;;;;;;38.10;19.70;;;;;;;-0.03;54.63;100705.14;129615;1276;108873;-77
2022/03/07 00:28:48;;;;;;;30.70;18.30;;;;;;;-0.00;54.44;100705.21;129519;1276;108828;-76
2022/03/07 00:31:53;;;;;;;29.00;18.00;;;;;;;0.03;54.22;100712.05;129684;1276;107722;-76
2022/03/07 00:34:59;;;;;;;30.40;17.70;;;;;;;0.05;54.54;100709.34;129475;1276;108882;-77
2022/03/07 00:38:05;;;;;;;31.50;18.60;;;;;;;0.03;55.30;100713.13;129471;1276;108893;-77
2022/03/07 00:41:12;;;;;;;33.20;17.60;;;;;;;-0.02;55.13;100721.02;129589;1276;108980;-76
2022/03/07 00:44:18;;;;;;;28.10;17.60;;;;;;;-0.06;55.51;100722.41;129622;1276;108208;-78
2022/03/07 00:47:25;;;;;;;34.80;18.50;;;;;;;-0.08;55.85;100726.38;129588;1276;108900;-77
2022/03/07 00:50:30;;;;;;;34.30;18.60;;;;;;;-0.11;55.57;100723.72;129480;1276;108689;-78
2022/03/07 00:53:36;;;;;;;33.60;19.50;;;;;;;-0.14;56.27;100727.40;129613;1276;108671;-76
2022/03/07 00:56:42;;;;;;;54.20;28.60;;;;;;;-0.16;56.45;100727.48;129433;1276;108678;-76
2022/03/07 00:59:48;;;;;;;45.80;26.70;;;;;;;-0.18;56.37;100722.12;129438;1276;108913;-76
2022/03/07 01:02:54;;;;;;;36.20;21.60;;;;;;;-0.19;56.24;100720.79;129518;1276;108640;-75
2022/03/07 01:05:59;;;;;;;39.00;20.30;;;;;;;-0.20;56.17;100716.11;129463;1276;108898;-76
2022/03/07 01:09:06;;;;;;;36.70;19.50;;;;;;;-0.20;56.53;100712.78;129571;1276;108726;-76
2022/03/07 01:12:12;;;;;;;31.70;18.00;;;;;;;-0.24;56.91;100710.00;129337;1276;108968;-76
2022/03/07 01:15:18;;;;;;;25.60;15.50;;;;;;;-0.26;56.56;100706.77;129666;1276;108928;-77
2022/03/07 01:18:24;;;;;;;26.80;17.00;;;;;;;-0.24;56.28;100703.56;129684;1276;108962;-78
2022/03/07 01:21:30;;;;;;;300.00;84.30;;;;;;;-0.24;55.42;100692.20;129517;1276;109159;-77
2022/03/07 01:24:37;;;;;;;88.40;28.30;;;;;;;-0.18;55.29;100689.63;129424;1276;109009;-75
2022/03/07 01:27:42;;;;;;;34.20;16.10;;;;;;;-0.11;55.41;100687.67;129466;1276;108786;-75
2022/03/07 01:30:50;;;;;;;26.50;15.50;;;;;;;-0.07;55.14;100682.98;129551;1276;108690;-74
2022/03/07 01:33:55;;;;;;;25.50;14.30;;;;;;;-0.04;54.65;100682.47;129643;1276;108947;-75
2022/03/07 01:37:01;;;;;;;23.00;12.60;;;;;;;0.00;54.69;100682.64;129543;1276;108872;-77
2022/03/07 01:40:08;;;;;;;20.50;12.70;;;;;;;0.03;54.53;100681.45;129561;1276;109119;-76
2022/03/07 01:43:14;;;;;;;18.90;11.60;;;;;;;0.04;54.16;100682.60;129617;1276;106720;-76
2022/03/07 01:46:19;;;;;;;20.80;12.70;;;;;;;0.10;53.96;100677.07;129609;1276;108786;-75
2022/03/07 01:49:25;;;;;;;19.30;12.30;;;;;;;0.17;54.06;100672.67;129548;1276;108835;-75
2022/03/07 01:52:31;;;;;;;19.50;11.90;;;;;;;0.22;54.03;100668.05;129458;1276;106929;-77
2022/03/07 01:55:38;;;;;;;18.60;10.60;;;;;;;0.19;53.70;100665.24;129512;1276;108873;-76
2022/03/07 01:58:44;;;;;;;18.60;10.20;;;;;;;0.14;53.64;100674.41;129455;1276;109047;-77
2022/03/07 02:01:49;;;;;;;15.90;9.70;;;;;;;0.09;53.64;100670.33;129384;1276;108943;-77
2022/03/07 02:04:55;;;;;;;14.00;9.30;;;;;;;0.05;53.43;100668.94;129540;1276;109020;-76
2022/03/07 02:08:01;;;;;;;15.10;9.10;;;;;;;0.02;53.38;100668.04;129529;1276;119797;-76
2022/03/07 02:11:11;;;;;;;16.40;9.30;;;;;;;0.01;53.43;100664.77;129373;1276;107760;-76
2022/03/07 02:14:19;;;;;;;15.60;9.00;;;;;;;-0.01;53.28;100661.17;129395;1276;108897;-77
2022/03/07 02:17:28;;;;;;;16.50;10.10;;;;;;;-0.02;53.19;100657.51;129405;1276;108781;-78
2022/03/07 02:20:35;;;;;;;18.20;10.80;;;;;;;-0.05;53.37;100652.63;129658;1276;108799;-78
2022/03/07 02:23:40;;;;;;;15.30;9.50;;;;;;;-0.03;53.60;100645.34;129472;1276;108787;-76
2022/03/07 02:26:57;;;;;;;13.00;8.50;;;;;;;0.01;53.48;100643.23;129313;1276;108815;-76
2022/03/07 02:30:05;;;;;;;12.70;8.30;;;;;;;0.00;53.45;100652.02;129336;1276;107877;-77
2022/03/07 02:33:14;;;;;;;13.10;8.20;;;;;;;-0.06;53.46;100643.55;129482;1276;108580;-77
2022/03/07 02:36:20;;;;;;;14.10;8.50;;;;;;;-0.09;53.54;100649.31;129385;1277;107724;-79
2022/03/07 02:39:26;;;;;;;12.80;7.80;;;;;;;-0.13;53.71;100648.11;129621;1276;107341;-79
2022/03/07 02:42:32;;;;;;;13.10;8.50;;;;;;;-0.14;53.70;100642.73;129410;1276;108803;-79
2022/03/07 02:45:38;;;;;;;12.20;7.90;;;;;;;-0.14;53.81;100636.27;129491;1276;108736;-77
2022/03/07 02:48:44;;;;;;;14.10;8.80;;;;;;;-0.12;54.07;100629.19;129360;1276;108882;-77
2022/03/07 02:51:49;;;;;;;15.50;8.30;;;;;;;-0.11;53.96;100627.23;129317;1276;107197;-77
2022/03/07 02:54:55;;;;;;;12.60;8.10;;;;;;;-0.05;54.18;100627.62;129400;1276;109125;-78
2022/03/07 02:58:01;;;;;;;15.00;9.40;;;;;;;-0.03;54.31;100626.27;129386;1276;108917;-77
2022/03/07 03:01:07;;;;;;;13.70;9.30;;;;;;;-0.07;54.67;100629.45;129415;1276;108921;-76
2022/03/07 03:04:12;;;;;;;13.90;8.60;;;;;;;-0.12;54.87;100630.23;129507;1276;108829;-77
2022/03/07 03:07:18;;;;;;;15.40;9.60;;;;;;;-0.15;55.07;100628.83;129443;1276;108818;-76
2022/03/07 03:10:24;;;;;;;14.10;9.60;;;;;;;-0.19;55.49;100630.40;129420;1275;108611;-76
2022/03/07 03:13:30;;;;;;;15.10;9.30;;;;;;;-0.23;55.33;100636.38;129434;1276;108721;-76
2022/03/07 03:16:35;;;;;;;15.70;9.40;;;;;;;-0.25;55.17;100635.75;129452;1276;108901;-79
2022/03/07 03:19:41;;;;;;;14.80;9.30;;;;;;;-0.25;55.33;100636.27;129430;1276;108063;-78
2022/03/07 03:22:47;;;;;;;14.10;9.20;;;;;;;-0.25;55.51;100638.37;129636;1276;108667;-76
2022/03/07 03:25:53;;;;;;;12.70;8.70;;;;;;;-0.24;55.67;100639.58;129634;1276;107959;-75
2022/03/07 03:28:58;;;;;;;14.80;9.70;;;;;;;-0.22;55.36;100633.33;129438;1276;108849;-75
2022/03/07 03:32:04;;;;;;;13.70;9.20;;;;;;;-0.18;55.37;100628.96;129438;1276;106698;-76
2022/03/07 03:35:11;;;;;;;13.80;9.10;;;;;;;-0.16;55.72;100630.05;129526;1276;108685;-75
2022/03/07 03:38:17;;;;;;;13.30;9.40;;;;;;;-0.14;55.89;100628.75;129517;1276;108520;-77
2022/03/07 03:41:22;;;;;;;13.10;9.30;;;;;;;-0.17;55.92;100633.45;129525;1276;108975;-76
2022/03/07 03:44:28;;;;;;;14.60;9.80;;;;;;;-0.21;56.24;100635.03;129499;1276;107680;-76
2022/03/07 03:47:34;;;;;;;14.50;9.70;;;;;;;-0.20;56.36;100627.64;129508;1276;108609;-79
2022/03/07 03:50:39;;;;;;;14.60;9.80;;;;;;;-0.20;57.00;100630.45;129559;1276;108893;-77
2022/03/07 03:53:45;;;;;;;14.80;10.40;;;;;;;-0.24;56.64;100630.65;129427;1276;108518;-78
2022/03/07 03:56:50;;;;;;;16.20;10.80;;;;;;;-0.23;56.57;100628.66;129436;1276;109017;-77
2022/03/07 03:59:56;;;;;;;16.60;10.50;;;;;;;-0.22;56.61;100634.36;129593;1276;108931;-74
2022/03/07 04:03:02;;;;;;;17.50;10.80;;;;;;;-0.23;57.26;100637.05;129731;1276;108683;-77
2022/03/07 04:06:08;;;;;;;16.80;11.10;;;;;;;-0.25;57.08;100632.97;129619;1276;108861;-80
2022/03/07 04:09:24;;;;;;;15.80;10.70;;;;;;;-0.26;57.53;100632.81;129486;1276;108747;-78
2022/03/07 04:12:30;;;;;;;17.50;10.80;;;;;;;-0.31;57.44;100639.70;129449;1276;108919;-78
2022/03/07 04:15:38;;;;;;;18.60;10.80;;;;;;;-0.33;57.31;100635.77;129442;1276;108715;-79
2022/03/07 04:18:44;;;;;;;16.60;11.20;;;;;;;-0.32;57.50;100632.96;129431;1276;108809;-78
2022/03/07 04:21:49;;;;;;;19.50;11.40;;;;;;;-0.32;57.20;100626.98;129437;1276;108932;-77
2022/03/07 04:24:55;;;;;;;20.00;12.20;;;;;;;-0.32;58.16;100632.23;129424;1276;109191;-79
2022/03/07 04:28:01;;;;;;;19.90;12.30;;;;;;;-0.36;57.52;100625.30;129423;1276;109690;-78
2022/03/07 04:31:07;;;;;;;20.20;11.90;;;;;;;-0.39;57.66;100622.27;129397;1276;108636;-79
2022/03/07 04:34:13;;;;;;;19.20;11.60;;;;;;;-0.42;58.05;100626.97;129399;1276;107101;-79
2022/03/07 04:37:19;;;;;;;20.70;12.40;;;;;;;-0.50;58.11;100624.00;129383;1276;108748;-79
2022/03/07 04:40:24;;;;;;;19.90;11.90;;;;;;;-0.55;58.32;100619.92;129428;1276;108767;-78
2022/03/07 04:43:30;;;;;;;25.70;14.90;;;;;;;-0.63;58.51;100619.58;129519;1276;109375;-78
2022/03/07 04:46:35;;;;;;;24.20;13.20;;;;;;;-0.71;58.32;100614.38;129474;1276;108730;-78
2022/03/07 04:49:41;;;;;;;22.80;13.70;;;;;;;-0.75;57.87;100625.40;129397;1276;108708;-78
2022/03/07 04:52:46;;;;;;;25.60;15.40;;;;;;;-0.82;59.04;100621.84;129413;1276;108779;-79
2022/03/07 04:55:52;;;;;;;29.10;16.90;;;;;;;-0.91;59.46;100619.84;129423;1276;109199;-79
2022/03/07 04:58:57;;;;;;;24.80;14.00;;;;;;;-0.96;59.52;100618.84;129354;1276;108868;-79
2022/03/07 05:02:03;;;;;;;22.10;13.00;;;;;;;-0.98;60.09;100616.48;129468;1276;108897;-78
2022/03/07 05:05:10;;;;;;;26.10;13.50;;;;;;;-0.93;58.74;100613.64;129589;1276;109732;-78
2022/03/07 05:08:15;;;;;;;39.90;21.10;;;;;;;-0.84;58.61;100609.91;129543;1276;109032;-78
2022/03/07 05:11:21;;;;;;;22.00;13.60;;;;;;;-0.81;59.14;100616.22;129458;1276;109033;-78
2022/03/07 05:14:27;;;;;;;22.40;13.30;;;;;;;-0.87;59.17;100612.46;129388;1276;107287;-78
2022/03/07 05:17:32;;;;;;;25.50;14.20;;;;;;;-0.92;60.00;100613.97;129470;1276;108875;-77
2022/03/07 05:20:38;;;;;;;29.10;16.80;;;;;;;-0.99;59.60;100616.88;129543;1276;108774;-77
2022/03/07 05:23:43;;;;;;;23.00;14.30;;;;;;;-1.03;59.49;100614.09;129396;1273;108819;-80
2022/03/07 05:26:49;;;;;;;22.10;12.70;;;;;;;-1.07;59.88;100615.31;129432;1276;108884;-78
2022/03/07 05:29:54;;;;;;;30.60;20.60;;;;;;;-1.14;59.38;100617.90;129405;1276;108906;-78
2022/03/07 05:32:59;;;;;;;25.70;14.90;;;;;;;-1.17;60.19;100621.54;129529;1276;108942;-78
2022/03/07 05:36:06;;;;;;;25.20;14.40;;;;;;;-1.22;60.03;100626.15;129513;1276;108632;-79
2022/03/07 05:39:11;;;;;;;27.30;14.30;;;;;;;-1.24;59.79;100627.23;129389;1276;108947;-78
2022/03/07 05:42:17;;;;;;;41.90;19.80;;;;;;;-1.24;60.08;100627.77;129552;1274;108782;-77
2022/03/07 05:45:23;;;;;;;98.60;39.20;;;;;;;-1.27;60.37;100627.71;129751;1274;108891;-77
2022/03/07 05:48:28;;;;;;;201.80;66.70;;;;;;;-1.27;60.24;100624.77;129672;1274;108930;-77
2022/03/07 05:51:33;;;;;;;126.40;44.70;;;;;;;-1.27;60.16;100622.48;129752;1274;108671;-77
2022/03/07 05:54:39;;;;;;;84.60;31.50;;;;;;;-1.25;60.54;100626.27;129741;1274;108888;-76
2022/03/07 05:57:44;;;;;;;60.90;25.60;;;;;;;-1.27;61.59;100627.90;129760;1274;108920;-77
2022/03/07 06:00:50;;;;;;;35.60;17.60;;;;;;;-1.31;61.14;100623.19;129737;1274;108734;-77
2022/03/07 06:03:55;;;;;;;43.70;19.90;;;;;;;-1.33;61.98;100627.46;129689;1274;108823;-78
2022/03/07 06:07:01;;;;;;;31.30;16.90;;;;;;;-1.31;62.73;100623.55;129739;1274;108612;-77
2022/03/07 06:10:07;;;;;;;32.70;16.60;;;;;;;-1.25;64.05;100624.34;129743;1274;108784;-74
2022/03/07 06:13:13;;;;;;;31.90;16.50;;;;;;;-1.19;63.88;100625.27;129690;1274;108869;-73
2022/03/07 06:16:18;;;;;;;29.40;15.20;;;;;;;-1.12;64.29;100628.27;129664;1274;108709;-71
2022/03/07 06:19:24;;;;;;;29.30;15.50;;;;;;;-0.97;63.98;100629.89;129754;1274;108654;-73
2022/03/07 06:22:30;;;;;;;39.50;21.70;;;;;;;-0.83;63.19;100630.11;129661;1276;108732;-73
2022/03/07 06:25:36;;;;;;;26.70;15.30;;;;;;;-0.68;62.57;100621.75;129672;1274;108654;-72
2022/03/07 06:28:41;;;;;;;28.50;14.70;;;;;;;-0.61;64.29;100612.14;129695;1274;108923;-72
2022/03/07 06:31:47;;;;;;;26.40;14.30;;;;;;;-0.63;63.67;100604.91;129702;1274;107667;-72
2022/03/07 06:34:52;;;;;;;27.60;15.10;;;;;;;-0.65;63.44;100600.06;129762;1274;108983;-72
2022/03/07 06:37:58;;;;;;;24.70;14.30;;;;;;;-0.64;63.55;100601.78;129698;1274;108842;-72
2022/03/07 06:41:04;;;;;;;28.50;15.20;;;;;;;-0.66;64.42;100601.02;129602;1276;108919;-72
2022/03/07 06:44:09;;;;;;;30.10;15.90;;;;;;;-0.67;64.41;100600.04;129577;1276;109131;-72
2022/03/07 06:47:16;;;;;;;25.50;14.20;;;;;;;-0.65;64.65;100597.98;129564;1276;107374;-71
2022/03/07 06:50:22;;;;;;;27.00;14.10;;;;;;;-0.57;64.78;100599.72;129683;1276;108820;-73
2022/03/07 06:53:27;;;;;;;29.50;18.30;;;;;;;-0.52;64.47;100595.63;129540;1276;108964;-72
2022/03/07 06:56:33;;;;;;;407.10;132.80;;;;;;;-0.44;64.24;100595.59;129679;1276;108876;-72
2022/03/07 06:59:38;;;;;;;45.70;19.20;;;;;;;-0.36;64.19;100601.71;129575;1276;108775;-71
2022/03/07 07:02:45;;;;;;;34.70;16.00;;;;;;;-0.34;64.74;100604.71;129641;1276;107231;-73
2022/03/07 07:05:50;;;;;;;30.30;16.00;;;;;;;-0.33;65.10;100606.46;129702;1276;108645;-72
2022/03/07 07:08:55;;;;;;;36.60;16.30;;;;;;;-0.34;64.88;100609.30;129734;1276;108088;-72
2022/03/07 07:12:02;;;;;;;25.60;15.30;;;;;;;-0.30;65.59;100612.41;129621;1275;108700;-71
2022/03/07 07:15:09;;;;;;;53.10;22.10;;;;;;;-0.33;66.64;100612.73;129522;1275;108702;-73
2022/03/07 07:18:15;;;;;;;24.10;14.00;;;;;;;-0.32;65.88;100613.73;129655;1276;108968;-71
2022/03/07 07:21:20;;;;;;;34.30;15.90;;;;;;;-0.22;65.81;100613.75;129700;1276;108844;-71
2022/03/07 07:24:26;;;;;;;36.70;16.40;;;;;;;-0.10;66.89;100613.52;129625;1276;109091;-73
2022/03/07 07:27:31;;;;;;;23.50;13.30;;;;;;;-0.03;66.18;100613.86;129582;1276;108974;-73
2022/03/07 07:30:37;;;;;;;24.10;13.10;;;;;;;0.10;65.73;100614.43;129542;1276;108925;-72
2022/03/07 07:33:42;;;;;;;50.10;24.70;;;;;;;0.23;65.04;100613.27;129563;1276;108732;-72
2022/03/07 07:36:47;;;;;;;25.70;13.90;;;;;;;0.31;65.41;100614.41;129680;1276;108908;-72
2022/03/07 07:39:53;;;;;;;25.00;15.10;;;;;;;0.32;65.01;100615.08;129707;1275;108481;-73
2022/03/07 07:42:58;;;;;;;25.60;14.30;;;;;;;0.37;65.09;100617.63;129543;1276;109032;-73
2022/03/07 07:46:04;;;;;;;24.80;14.60;;;;;;;0.35;65.68;100613.49;129679;1276;108699;-72
2022/03/07 07:49:10;;;;;;;25.60;13.90;;;;;;;0.39;65.83;100619.45;129501;1276;108785;-73
2022/03/07 07:52:16;;;;;;;21.20;12.30;;;;;;;0.43;66.46;100618.39;129620;1276;108795;-72
2022/03/07 07:55:22;;;;;;;24.00;13.50;;;;;;;0.54;65.75;100619.21;129639;1274;108876;-72
2022/03/07 07:58:27;;;;;;;22.30;12.40;;;;;;;0.65;66.61;100621.26;129502;1275;107688;-72
2022/03/07 08:01:32;;;;;;;20.50;12.80;;;;;;;0.66;66.76;100629.08;129540;1276;108802;-72
2022/03/07 08:04:38;;;;;;;19.30;11.60;;;;;;;0.66;66.48;100623.12;129685;1276;108968;-73
2022/03/07 08:07:44;;;;;;;17.80;11.20;;;;;;;0.65;66.61;100616.36;129746;1276;107024;-70
2022/03/07 08:10:49;;;;;;;20.10;11.50;;;;;;;0.70;66.32;100612.92;129592;1276;108621;-72
2022/03/07 08:13:55;;;;;;;19.90;10.50;;;;;;;0.74;66.54;100613.95;129723;1274;108863;-72
2022/03/07 08:17:00;;;;;;;16.70;9.60;;;;;;;0.86;65.36;100608.06;129546;1276;108834;-72
2022/03/07 08:20:07;;;;;;;19.40;10.50;;;;;;;1.07;65.37;100609.38;129528;1276;108817;-72
2022/03/07 08:23:13;;;;;;;21.60;11.20;;;;;;;1.18;64.84;100602.82;129639;1276;107448;-71
2022/03/07 08:26:18;;;;;;;17.90;10.20;;;;;;;1.38;64.50;100603.30;129446;1276;108984;-73
2022/03/07 08:29:24;;;;;;;16.80;9.30;;;;;;;1.47;64.14;100603.67;129601;1275;108774;-71
2022/03/07 08:32:30;;;;;;;18.60;9.50;;;;;;;1.47;64.31;100601.41;129543;1275;108793;-72
2022/03/07 08:35:35;;;;;;;43.80;21.60;;;;;;;1.57;64.03;100603.09;129734;1275;108666;-71
2022/03/07 08:38:41;;;;;;;94.30;36.30;;;;;;;1.68;63.56;100598.64;129676;1275;108952;-71
2022/03/07 08:41:46;;;;;;;57.80;20.70;;;;;;;1.75;63.26;100595.79;129708;1275;108816;-72
2022/03/07 08:44:52;;;;;;;22.50;9.50;;;;;;;1.83;63.24;100594.62;129708;1276;108931;-73
2022/03/07 08:47:58;;;;;;;26.50;10.80;;;;;;;1.87;63.03;100597.05;129671;1276;108743;-72
2022/03/07 08:51:03;;;;;;;25.00;10.50;;;;;;;1.88;62.98;100593.64;129518;1273;109009;-73
2022/03/07 08:54:09;;;;;;;26.00;11.50;;;;;;;1.89;63.15;100597.04;129590;1276;108938;-73
2022/03/07 08:57:14;;;;;;;535.00;171.40;;;;;;;1.89;63.06;100593.89;129631;1275;108933;-71
2022/03/07 09:00:20;;;;;;;288.80;73.20;;;;;;;2.01;62.83;100593.89;129686;1275;108720;-72
2022/03/07 09:03:26;;;;;;;327.00;87.20;;;;;;;2.15;62.63;100586.63;129536;1276;108962;-73
2022/03/07 09:06:32;;;;;;;29.10;11.50;;;;;;;2.28;62.63;100588.81;129669;1276;108627;-72
2022/03/07 09:09:37;;;;;;;19.40;7.80;;;;;;;2.38;62.41;100589.09;129539;1276;109036;-72
2022/03/07 09:12:43;;;;;;;13.00;7.50;;;;;;;2.54;61.93;100587.59;129715;1276;108882;-72
2022/03/07 09:15:49;;;;;;;25.70;9.70;;;;;;;2.70;61.93;100585.06;129683;1276;108832;-72
2022/03/07 09:18:54;;;;;;;198.90;54.10;;;;;;;2.83;61.89;100581.29;129656;1274;108780;-71
2022/03/07 09:22:00;;;;;;;19.80;9.00;;;;;;;3.04;61.44;100592.27;129669;1274;108599;-72
2022/03/07 09:25:06;;;;;;;152.10;41.80;;;;;;;3.06;61.04;100591.06;129683;1274;108562;-72
2022/03/07 09:28:12;;;;;;;16.80;7.50;;;;;;;3.11;61.19;100591.11;129724;1274;108834;-73
2022/03/07 09:31:17;;;;;;;12.70;6.50;;;;;;;3.13;61.35;100595.57;129711;1274;108597;-74
2022/03/07 09:34:23;;;;;;;10.70;6.10;;;;;;;3.16;60.96;100597.14;129718;1274;108966;-73
2022/03/07 09:37:28;;;;;;;11.80;7.20;;;;;;;3.11;61.07;100593.06;129682;1274;107611;-73
2022/03/07 09:40:34;;;;;;;33.30;12.90;;;;;;;3.10;61.55;100593.26;129706;1274;108893;-73
2022/03/07 09:43:40;;;;;;;23.90;10.50;;;;;;;3.26;61.64;100594.37;129691;1273;108678;-71
2022/03/07 09:46:46;;;;;;;11.20;6.60;;;;;;;3.37;61.29;100587.52;129625;1274;109022;-72
2022/03/07 09:49:53;;;;;;;11.40;6.90;;;;;;;3.39;60.98;100587.04;129714;1274;108575;-73
2022/03/07 09:52:58;;;;;;;15.20;9.30;;;;;;;3.44;61.26;100584.10;129738;1274;108756;-71
2022/03/07 09:56:05;;;;;;;13.20;8.20;;;;;;;3.51;61.04;100590.85;129704;1274;107738;-73
2022/03/07 09:59:10;;;;;;;16.00;10.30;;;;;;;3.57;61.07;100594.50;129717;1274;109722;-72
2022/03/07 10:02:22;;;;;;;18.10;11.20;;;;;;;3.54;60.97;100590.44;129731;1274;108763;-73
2022/03/07 10:05:36;;;;;;;19.90;12.20;;;;;;;3.61;61.13;100591.98;129641;1274;109747;-73
2022/03/07 10:08:51;;;;;;;18.00;11.10;;;;;;;3.65;61.21;100587.85;129721;1274;107405;-71
2022/03/07 10:12:00;;;;;;;16.10;9.80;;;;;;;3.77;61.22;100587.92;129725;1275;106832;-70
2022/03/07 10:15:16;;;;;;;16.90;11.60;;;;;;;3.87;60.84;100582.16;129657;1274;106936;-70
2022/03/07 10:18:22;;;;;;;15.80;10.10;;;;;;;4.02;61.14;100579.59;129671;1274;108996;-73
2022/03/07 10:21:28;;;;;;;17.00;11.10;;;;;;;4.04;60.56;100591.25;129667;1274;108851;-72
2022/03/07 10:24:37;;;;;;;30.60;15.70;;;;;;;3.93;60.94;100590.02;129660;1274;107378;-73
2022/03/07 10:27:45;;;;;;;18.80;13.20;;;;;;;3.84;61.25;100586.54;129713;1274;106900;-73
2022/03/07 10:30:51;;;;;;;23.00;15.70;;;;;;;3.90;61.26;100586.88;129577;1274;109052;-73
2022/03/07 10:34:06;;;;;;;23.90;15.70;;;;;;;3.90;61.18;100581.98;129650;1274;109204;-73
2022/03/07 10:37:12;;;;;;;25.40;17.50;;;;;;;3.89;61.46;100580.58;129681;1274;108880;-73
2022/03/07 10:40:22;;;;;;;27.90;16.90;;;;;;;3.91;61.46;100584.67;129745;1274;108791;-71
2022/03/07 10:43:28;;;;;;;29.30;17.30;;;;;;;3.83;61.63;100586.50;129762;1274;108769;-72
2022/03/07 10:46:34;;;;;;;22.30;14.70;;;;;;;3.71;61.82;100586.69;129708;1275;109005;-72
2022/03/07 10:49:49;;;;;;;21.00;14.30;;;;;;;3.64;61.94;100590.56;129658;1276;108866;-72
2022/03/07 10:53:01;;;;;;;25.10;15.40;;;;;;;3.47;61.90;100594.95;129784;1275;107124;-70
2022/03/07 10:56:08;;;;;;;22.90;15.30;;;;;;;3.37;62.59;100590.33;129674;1274;108891;-74
2022/03/07 10:59:13;;;;;;;23.00;15.30;;;;;;;3.33;62.61;100587.56;129744;1275;108802;-73
2022/03/07 11:02:19;;;;;;;24.30;16.40;;;;;;;3.25;62.38;100588.64;129589;1274;108753;-72
2022/03/07 11:05:25;;;;;;;26.80;17.50;;;;;;;3.08;62.87;100592.31;129581;1274;107609;-81
2022/03/07 11:08:31;;;;;;;24.20;15.80;;;;;;;3.05;63.21;100588.66;129662;1276;106783;-73
2022/03/07 11:11:37;;;;;;;24.10;14.90;;;;;;;3.14;63.01;100576.53;129765;1274;108553;-73
2022/03/07 11:14:43;;;;;;;23.60;15.30;;;;;;;3.29;63.02;100568.70;129689;1275;108930;-72
2022/03/07 11:17:49;;;;;;;24.30;16.10;;;;;;;3.51;63.02;100565.72;129705;1274;108791;-71
2022/03/07 11:20:57;;;;;;;25.30;15.70;;;;;;;3.52;62.73;100565.79;129666;1274;108910;-72
2022/03/07 11:24:03;;;;;;;26.20;15.90;;;;;;;3.58;62.55;100571.04;129726;1275;108820;-72
2022/03/07 11:27:09;;;;;;;24.50;15.60;;;;;;;3.52;62.75;100574.05;129700;1274;108946;-72
2022/03/07 11:30:21;;;;;;;25.20;15.60;;;;;;;3.63;62.70;100558.20;129684;1274;108687;-72
2022/03/07 11:33:34;;;;;;;25.40;16.20;;;;;;;3.94;62.47;100564.60;129686;1274;108805;-72
2022/03/07 11:36:44;;;;;;;23.80;15.00;;;;;;;4.04;62.03;100561.65;129673;1274;108565;-72
2022/03/07 11:39:51;;;;;;;76.10;36.80;;;;;;;3.98;61.94;100559.98;129697;1274;109737;-73
2022/03/07 11:43:07;;;;;;;24.80;15.70;;;;;;;3.84;62.11;100552.95;129684;1274;108512;-73
2022/03/07 11:46:23;;;;;;;22.50;14.40;;;;;;;3.69;62.32;100556.98;129684;1275;108740;-73
2022/03/07 11:49:31;;;;;;;63.00;29.40;;;;;;;3.56;62.41;100550.77;129668;1274;108759;-73
2022/03/07 11:52:37;;;;;;;39.10;20.40;;;;;;;3.39;62.30;100552.73;129690;1274;108776;-72
2022/03/07 11:55:47;;;;;;;27.30;16.30;;;;;;;3.28;63.02;100547.99;129646;1274;108967;-73
2022/03/07 11:58:54;;;;;;;53.00;25.30;;;;;;;3.37;63.36;100542.52;129769;1274;109045;-73
2022/03/07 12:02:00;;;;;;;28.70;15.50;;;;;;;3.55;62.93;100543.65;129671;1274;108904;-73
2022/03/07 12:05:06;;;;;;;25.60;16.30;;;;;;;3.65;62.06;100538.56;129732;1274;108652;-73
2022/03/07 12:08:17;;;;;;;40.00;19.40;;;;;;;3.80;62.27;100534.95;129689;1274;107690;-72
2022/03/07 12:11:31;;;;;;;26.70;15.90;;;;;;;3.92;61.85;100537.86;129738;1274;107499;-73
2022/03/07 12:14:38;;;;;;;22.80;14.10;;;;;;;3.97;61.66;100536.77;129724;1275;108728;-73
2022/03/07 12:17:51;;;;;;;28.80;15.80;;;;;;;4.00;61.40;100533.61;129755;1274;108772;-72
2022/03/07 12:20:59;;;;;;;24.70;15.20;;;;;;;3.89;61.65;100534.27;129693;1274;108870;-72
2022/03/07 12:24:05;;;;;;;89.70;38.80;;;;;;;3.81;61.51;100526.78;129685;1274;109015;-73
2022/03/07 12:27:11;;;;;;;27.50;15.20;;;;;;;3.67;61.64;100519.06;129690;1274;108769;-72
2022/03/07 12:30:17;;;;;;;25.80;15.10;;;;;;;3.55;62.11;100519.19;129780;1274;108877;-72
2022/03/07 12:33:22;;;;;;;27.50;15.80;;;;;;;3.52;62.51;100519.35;129535;1275;109052;-72
2022/03/07 12:36:28;;;;;;;27.90;15.70;;;;;;;3.52;62.59;100516.34;129660;1275;108612;-71
2022/03/07 12:39:44;;;;;;;26.90;16.10;;;;;;;3.51;62.77;100514.30;129583;1274;108571;-73
2022/03/07 12:42:50;;;;;;;27.30;16.50;;;;;;;3.57;62.80;100512.02;129656;1275;108982;-72
2022/03/07 12:45:56;;;;;;;26.20;16.30;;;;;;;3.71;62.48;100510.17;129517;1276;108932;-72
2022/03/07 12:49:02;;;;;;;25.40;15.50;;;;;;;3.78;62.17;100504.60;129503;1276;108790;-73
2022/03/07 12:52:09;;;;;;;27.90;16.40;;;;;;;3.82;62.07;100506.96;129633;1276;108807;-73
2022/03/07 12:55:16;;;;;;;27.60;16.20;;;;;;;3.83;62.00;100507.26;129701;1274;108896;-71
2022/03/07 12:58:22;;;;;;;27.50;15.70;;;;;;;3.88;61.96;100506.23;129721;1274;108654;-72
2022/03/07 13:01:28;;;;;;;25.50;16.70;;;;;;;3.92;61.63;100509.28;129777;1274;107473;-72
2022/03/07 13:04:34;;;;;;;27.10;17.00;;;;;;;4.05;61.84;100508.28;129767;1274;108955;-72
2022/03/07 13:07:40;;;;;;;27.90;16.60;;;;;;;4.17;61.81;100505.87;129610;1275;108912;-72
2022/03/07 13:10:51;;;;;;;28.00;17.80;;;;;;;4.24;61.58;100499.17;129651;1274;108771;-74
2022/03/07 13:13:57;;;;;;;24.80;15.70;;;;;;;4.28;61.43;100497.64;129703;1275;108837;-72
2022/03/07 13:17:09;;;;;;;22.90;14.60;;;;;;;4.35;61.59;100504.94;129700;1274;108769;-73
2022/03/07 13:20:23;;;;;;;22.60;14.10;;;;;;;4.40;61.30;100505.84;129702;1274;108984;-72
2022/03/07 13:23:29;;;;;;;20.80;13.20;;;;;;;4.38;60.61;100504.23;129666;1274;108866;-72
2022/03/07 13:26:35;;;;;;;20.70;12.50;;;;;;;4.37;60.44;100495.84;129692;1274;108867;-72
2022/03/07 13:29:43;;;;;;;21.90;13.20;;;;;;;4.36;60.18;100498.20;129750;1274;108650;-72
2022/03/07 13:32:49;;;;;;;22.80;13.60;;;;;;;4.33;60.31;100494.13;129737;1275;109931;-73
2022/03/07 13:35:54;;;;;;;21.80;13.30;;;;;;;4.37;60.63;100491.23;129718;1274;107278;-73
2022/03/07 13:39:00;;;;;;;18.60;12.10;;;;;;;4.49;59.97;100492.52;129728;1274;108718;-72
2022/03/07 13:42:08;;;;;;;23.00;12.90;;;;;;;4.62;60.03;100491.05;129695;1274;108943;-72
2022/03/07 13:45:16;;;;;;;23.20;14.10;;;;;;;4.82;59.41;100491.95;129695;1274;108711;-73
2022/03/07 13:48:24;;;;;;;23.10;14.30;;;;;;;5.03;58.82;100501.05;129715;1274;108688;-72
2022/03/07 13:51:33;;;;;;;24.20;15.20;;;;;;;5.12;58.48;100500.16;129709;1274;108895;-72
2022/03/07 13:54:41;;;;;;;25.90;13.70;;;;;;;5.25;58.85;100493.63;129672;1276;109010;-73